Domov               UVHVVR             MKGP            O straneh              
ZDRAVSTVENO VARSTVO RASTLIN
  MREŽA AGROMET. POSTAJ
 ► PROGNOSTIČNA OBVESTILA
AGROMETEOROLOŠKI PODATKI -
ARSO
OBVLADOVANJE TVEGANJ ZARADI
NEUGODNIH VREMENSKIH RAZMER
  ► NARAVNE NESREČE
  ► SUŠA/MOČA
  ► NAMAKANJE
  ► ŽLED (gozdarstvo)
KARTOGRAFSKI PRIKAZI
SPLETNE POVEZAVE
PROJEKTI IN PUBLIKACIJE

AGROMETEOROLOŠKA MREŽA: VREMENSKE POSTAJE IN FENOLOŠKA OPAZOVANJA

Pregled podatkov za lokacijo Ojstriška vas, meteorološka postaja 24361

Pregled senzorjev na lokaciji

ID Ime Zadnja
vrednost
Datum
zadnje
spremembe
Tip
senzorja
2036 Relativna vlaga 2 m (% RH) 99,58 % RH 25.6.2017 20:30 Generic 0 - 100 %
2037 Temperatura 2 m ( °C) 17,73 °C 25.6.2017 20:30 Generic -40 - +60 °C
2038 Omočenost lista (U) 7 U 25.6.2017 20:30 A730WET
4058 Padavine 0.2 mm (mm) 0,4 mm 25.6.2017 20:30 Generic 0.2 mm

Pregled podatkov zadnjih 24 ur

Zap.
št.
Datum in čas Ojstriška vas
Omočenost
lista
Padavine
0.2
mm
Relativna
vlaga
2
m
Temperatura
2
m
0 25.6.2017 19:30 7 0,4 99,58 17,73
1 25.6.2017 19:00 3 2 99,22 18,12
2 25.6.2017 18:30 6 17,6 97,85 19,12
3 25.6.2017 18:00 9 2,2 94,9 19,93
4 25.6.2017 17:30 10 0,2 89,47 21,03
5 25.6.2017 17:00 2 0 81,66 21,98
6 25.6.2017 16:30 0 0 75,58 22,49
7 25.6.2017 16:00 0 0 78,68 22,32
8 25.6.2017 15:30 0 0 80,12 22,49
9 25.6.2017 15:00 0 0 81,05 22,39
10 25.6.2017 14:30 0 0 97,29 20,56
11 25.6.2017 14:00 2 0 98,85 19,83
12 25.6.2017 13:30 10 0 99,29 19,49
13 25.6.2017 13:00 10 0 99,07 19,19
14 25.6.2017 12:30 10 7,8 98,07 19,02
15 25.6.2017 12:00 10 4,6 91,4 20,98
16 25.6.2017 11:30 6 0 84,32 21,95
17 25.6.2017 11:00 1 0 84,13 22,22
18 25.6.2017 10:30 10 0 88,16 21,07
19 25.6.2017 10:00 10 1,2 82,25 21,78
20 25.6.2017 09:30 0 0 68,35 24,3
21 25.6.2017 09:00 10 0 71,79 23,49
22 25.6.2017 08:30 10 0 76,53 22,42
23 25.6.2017 08:00 5 0 76,87 22,1
24 25.6.2017 07:30 1 0 76,83 21,9
25 25.6.2017 07:00 0 0 77 21,81
26 25.6.2017 06:30 0 0 76,51 21,44
27 25.6.2017 06:00 0 0 87,81 20,27
28 25.6.2017 05:30 0 0 88,89 19,29
29 25.6.2017 05:00 0 0 89,94 18,32
30 25.6.2017 04:30 0 0 88,25 18,56
31 25.6.2017 04:00 0 0 88,01 18,63
32 25.6.2017 03:30 0 0 84,42 19,32
33 25.6.2017 03:00 0 0 75,12 21,1
34 25.6.2017 02:30 0 0 72,58 22,93
35 25.6.2017 02:00 0 0 74,33 24
36 25.6.2017 01:30 0 0 77,61 23,98
37 25.6.2017 01:00 0 0 71,99 25,08
38 25.6.2017 00:30 0 0 77,78 24,2
39 25.6.2017 00:00 0 0 87,57 22,25
40 24.6.2017 23:30 0 0 88,82 22,12
41 24.6.2017 23:00 0 0 89,77 21,86
42 24.6.2017 22:30 0 0 90,04 21,81
43 24.6.2017 22:00 0 0 86,94 22,42
44 24.6.2017 21:30 0 0 86,13 22,59
© 2011 Ministrstvo za kmetijstvo, gozdarstvo in prehrano. Vse pravice pridržane.